Time;durP1;ratioP1;P1;durP2;ratioP2;P2;SDS_P1;SDS_P2;PMS_P1;PMS_P2;Temp;Humidity;BMP_temperature;BMP_pressure;BME280_temperature;BME280_humidity;BME280_pressure;Samples;Min_cycle;Max_cycle;Signal;HPM_P1;HPM_P2
2021/05/30 00:00:11;;;;;;;19.27;14.57;;;;;;;;;;5046999;28;37665;-77
2021/05/30 00:02:37;;;;;;;19.75;13.82;;;;;;;;;;5039482;28;38367;-80
2021/05/30 00:05:05;;;;;;;16.52;13.45;;;;;;;;;;5031626;28;38837;-82
2021/05/30 00:07:31;;;;;;;22.67;15.95;;;;;;;;;;5025141;28;48351;-78
2021/05/30 00:09:57;;;;;;;21.08;14.88;;;;;;;;;;5029399;28;39285;-77
2021/05/30 00:12:24;;;;;;;21.83;16.30;;;;;;;;;;5033202;28;38534;-80
2021/05/30 00:14:50;;;;;;;22.52;15.95;;;;;;;;;;5034391;28;37974;-78
2021/05/30 00:17:17;;;;;;;21.23;15.35;;;;;;;;;;5025497;28;37915;-81
2021/05/30 00:19:44;;;;;;;21.10;15.35;;;;;;;;;;5033745;28;39746;-81
2021/05/30 00:22:10;;;;;;;25.20;16.15;;;;;;;;;;5034573;28;38551;-80
2021/05/30 00:24:37;;;;;;;27.33;17.67;;;;;;;;;;5034239;28;38881;-78
2021/05/30 00:27:04;;;;;;;29.33;16.63;;;;;;;;;;5038634;28;37398;-80
2021/05/30 00:29:31;;;;;;;24.02;16.10;;;;;;;;;;5060502;28;39696;-78
2021/05/30 00:31:57;;;;;;;22.65;16.77;;;;;;;;;;5055468;28;40066;-80
2021/05/30 00:34:24;;;;;;;21.08;15.95;;;;;;;;;;5051326;28;38282;-79
2021/05/30 00:36:50;;;;;;;21.30;14.98;;;;;;;;;;5050268;27;36598;-78
2021/05/30 00:39:17;;;;;;;23.70;16.75;;;;;;;;;;5052193;27;40125;-79
2021/05/30 00:41:43;;;;;;;24.70;16.83;;;;;;;;;;5050239;28;38698;-80
2021/05/30 00:44:23;;;;;;;22.48;16.65;;;;;;;;;;5055126;28;38925;-79
2021/05/30 00:46:50;;;;;;;24.27;17.23;;;;;;;;;;5044432;28;37637;-76
2021/05/30 00:49:16;;;;;;;22.73;17.75;;;;;;;;;;5045864;27;39720;-76
2021/05/30 00:51:42;;;;;;;25.33;17.70;;;;;;;;;;5058559;27;37882;-76
2021/05/30 00:54:09;;;;;;;28.63;18.73;;;;;;;;;;5065565;28;38417;-77
2021/05/30 00:56:36;;;;;;;25.45;17.73;;;;;;;;;;5052741;28;37645;-78
2021/05/30 00:59:04;;;;;;;25.88;18.23;;;;;;;;;;5054218;28;39714;-77
2021/05/30 01:01:30;;;;;;;33.63;18.75;;;;;;;;;;5070874;27;48562;-77
2021/05/30 01:03:57;;;;;;;27.13;18.70;;;;;;;;;;5032485;27;37973;-80
2021/05/30 01:06:26;;;;;;;29.13;18.40;;;;;;;;;;5027720;28;37726;-80
2021/05/30 01:08:53;;;;;;;28.35;18.33;;;;;;;;;;5031800;27;39397;-78
2021/05/30 01:11:22;;;;;;;30.67;19.20;;;;;;;;;;5036731;27;38833;-78
2021/05/30 01:13:50;;;;;;;30.00;18.63;;;;;;;;;;5045103;28;39464;-79
2021/05/30 01:16:18;;;;;;;31.58;19.55;;;;;;;;;;5050993;27;37808;-81
2021/05/30 01:18:44;;;;;;;27.73;19.65;;;;;;;;;;5060102;28;40509;-79
2021/05/30 01:21:11;;;;;;;25.40;19.33;;;;;;;;;;5052764;27;38617;-78
2021/05/30 01:23:37;;;;;;;27.75;18.25;;;;;;;;;;5050143;28;38379;-79
2021/05/30 01:26:04;;;;;;;27.42;17.83;;;;;;;;;;5048026;28;37098;-77
2021/05/30 01:28:30;;;;;;;27.90;18.65;;;;;;;;;;5047917;28;39502;-78
2021/05/30 01:30:57;;;;;;;31.63;19.50;;;;;;;;;;5045388;28;38645;-77
2021/05/30 01:33:23;;;;;;;26.33;17.55;;;;;;;;;;5061820;27;38142;-78
2021/05/30 01:35:50;;;;;;;25.67;18.38;;;;;;;;;;5053323;28;38013;-82
2021/05/30 01:38:17;;;;;;;26.13;19.05;;;;;;;;;;5047550;27;39812;-77
2021/05/30 01:40:44;;;;;;;29.98;20.45;;;;;;;;;;5048378;28;40288;-78
2021/05/30 01:43:10;;;;;;;34.63;19.17;;;;;;;;;;5046075;28;38881;-78
2021/05/30 01:45:37;;;;;;;31.13;19.45;;;;;;;;;;5034290;28;38349;-77
2021/05/30 01:48:04;;;;;;;30.90;20.38;;;;;;;;;;5028869;28;39243;-76
2021/05/30 01:50:31;;;;;;;27.92;17.50;;;;;;;;;;5062711;27;37975;-77
2021/05/30 01:53:02;;;;;;;26.47;17.87;;;;;;;;;;5036130;28;38696;-77
2021/05/30 01:55:41;;;;;;;37.15;18.90;;;;;;;;;;5049164;28;47647;-77
2021/05/30 01:58:07;;;;;;;31.60;17.90;;;;;;;;;;5053619;27;39132;-78
2021/05/30 02:00:37;;;;;;;27.08;18.60;;;;;;;;;;5049729;28;40388;-80
2021/05/30 02:03:04;;;;;;;27.27;18.33;;;;;;;;;;5051743;27;37835;-77
2021/05/30 02:05:31;;;;;;;27.87;17.60;;;;;;;;;;5046579;27;37058;-78
2021/05/30 02:07:59;;;;;;;26.67;18.20;;;;;;;;;;5052388;28;39631;-76
2021/05/30 02:10:26;;;;;;;26.30;17.03;;;;;;;;;;5049567;27;38544;-76
2021/05/30 02:12:54;;;;;;;32.67;17.83;;;;;;;;;;5051198;28;38935;-80
2021/05/30 02:15:21;;;;;;;26.30;17.00;;;;;;;;;;5042411;27;39071;-77
2021/05/30 02:17:48;;;;;;;22.10;15.33;;;;;;;;;;5049694;28;40104;-80
2021/05/30 02:20:16;;;;;;;22.08;16.27;;;;;;;;;;5054139;27;38553;-77
2021/05/30 02:22:42;;;;;;;24.85;16.48;;;;;;;;;;5060818;27;38364;-80
2021/05/30 02:25:10;;;;;;;24.00;14.52;;;;;;;;;;5044277;28;37557;-79
2021/05/30 02:27:37;;;;;;;22.02;14.38;;;;;;;;;;5047822;28;37701;-78
2021/05/30 02:30:03;;;;;;;23.85;15.88;;;;;;;;;;5060471;27;38591;-78
2021/05/30 02:32:30;;;;;;;21.10;15.23;;;;;;;;;;5060169;28;39777;-77
2021/05/30 02:34:56;;;;;;;25.65;13.82;;;;;;;;;;5043243;28;37064;-78
2021/05/30 02:37:22;;;;;;;22.10;15.18;;;;;;;;;;5048723;28;38387;-80
2021/05/30 02:39:49;;;;;;;30.55;17.35;;;;;;;;;;5050726;28;39373;-80
2021/05/30 02:42:15;;;;;;;20.00;14.10;;;;;;;;;;5060059;28;38146;-77
2021/05/30 02:44:42;;;;;;;23.10;16.77;;;;;;;;;;5051003;28;38761;-78
2021/05/30 02:47:08;;;;;;;29.42;18.40;;;;;;;;;;5045390;28;38760;-76
2021/05/30 02:49:35;;;;;;;21.17;16.03;;;;;;;;;;5049572;28;38533;-77
2021/05/30 02:52:02;;;;;;;26.20;17.48;;;;;;;;;;5045878;28;39537;-77
2021/05/30 02:54:28;;;;;;;24.98;18.42;;;;;;;;;;5055814;27;48959;-76
2021/05/30 02:56:54;;;;;;;29.08;18.38;;;;;;;;;;5056632;27;39787;-78
2021/05/30 02:59:21;;;;;;;31.42;18.83;;;;;;;;;;5055310;28;38586;-77
2021/05/30 03:01:47;;;;;;;25.23;18.40;;;;;;;;;;5054004;28;39486;-78
2021/05/30 03:04:14;;;;;;;23.70;17.20;;;;;;;;;;5064534;27;36741;-77
2021/05/30 03:06:40;;;;;;;30.00;17.25;;;;;;;;;;5057932;28;39759;-76
2021/05/30 03:09:06;;;;;;;21.67;16.17;;;;;;;;;;5047944;27;37100;-77
2021/05/30 03:11:33;;;;;;;22.17;15.70;;;;;;;;;;5050920;28;37907;-77
2021/05/30 03:13:59;;;;;;;23.83;15.10;;;;;;;;;;5057119;28;39665;-82
2021/05/30 03:16:25;;;;;;;24.58;15.55;;;;;;;;;;5054764;27;39767;-76
2021/05/30 03:18:52;;;;;;;23.85;15.88;;;;;;;;;;5054378;28;37317;-77
2021/05/30 03:21:18;;;;;;;21.10;14.65;;;;;;;;;;5050568;27;37952;-78
2021/05/30 03:23:45;;;;;;;21.55;14.43;;;;;;;;;;5049607;28;37737;-77
2021/05/30 03:26:11;;;;;;;23.98;14.05;;;;;;;;;;5049262;27;39059;-77
2021/05/30 03:28:38;;;;;;;26.58;15.18;;;;;;;;;;5059449;27;39538;-78
2021/05/30 03:31:05;;;;;;;22.88;15.05;;;;;;;;;;5047435;27;38940;-79
2021/05/30 03:33:31;;;;;;;22.90;14.20;;;;;;;;;;5049700;27;37282;-77
2021/05/30 03:36:01;;;;;;;22.13;13.23;;;;;;;;;;5052204;28;38640;-78
2021/05/30 03:38:29;;;;;;;19.48;12.93;;;;;;;;;;5049024;27;47134;-76
2021/05/30 03:41:05;;;;;;;19.83;13.18;;;;;;;;;;5055163;27;37131;-79
2021/05/30 03:43:31;;;;;;;19.52;14.15;;;;;;;;;;5026151;28;48905;-79
2021/05/30 03:45:58;;;;;;;21.10;11.98;;;;;;;;;;5031201;28;39332;-76
2021/05/30 03:48:24;;;;;;;22.80;14.35;;;;;;;;;;5031811;28;39713;-78
2021/05/30 03:50:51;;;;;;;19.95;12.60;;;;;;;;;;5033071;28;38226;-77
2021/05/30 03:53:20;;;;;;;19.52;13.77;;;;;;;;;;5027485;28;38176;-78
2021/05/30 03:55:48;;;;;;;19.42;13.38;;;;;;;;;;5028158;28;39206;-79
2021/05/30 03:58:14;;;;;;;23.60;14.38;;;;;;;;;;5036812;28;38268;-78
2021/05/30 04:00:41;;;;;;;17.85;13.15;;;;;;;;;;5046008;27;38983;-78
2021/05/30 04:03:08;;;;;;;19.52;12.70;;;;;;;;;;5056842;27;37669;-77
2021/05/30 04:05:34;;;;;;;24.55;13.50;;;;;;;;;;5053889;27;38942;-78
2021/05/30 04:08:01;;;;;;;16.02;11.27;;;;;;;;;;5053613;28;39265;-77
2021/05/30 04:10:27;;;;;;;21.15;12.90;;;;;;;;;;5052645;28;46262;-77
2021/05/30 04:12:54;;;;;;;19.23;11.88;;;;;;;;;;5083710;27;36778;-78
2021/05/30 04:15:21;;;;;;;18.85;13.05;;;;;;;;;;5050609;27;38519;-79
2021/05/30 04:17:47;;;;;;;20.15;10.70;;;;;;;;;;5050149;28;39246;-78
2021/05/30 04:20:16;;;;;;;19.60;11.75;;;;;;;;;;5065985;27;38252;-77
2021/05/30 04:22:42;;;;;;;13.20;11.10;;;;;;;;;;5056348;28;38156;-77
2021/05/30 04:25:10;;;;;;;16.33;10.85;;;;;;;;;;5053547;27;39813;-77
2021/05/30 04:27:36;;;;;;;18.85;11.57;;;;;;;;;;5050581;28;39752;-80
2021/05/30 04:30:07;;;;;;;21.77;12.05;;;;;;;;;;5059347;27;39998;-79
2021/05/30 04:32:34;;;;;;;19.10;11.15;;;;;;;;;;5053573;27;49290;-78
2021/05/30 04:35:00;;;;;;;17.42;10.13;;;;;;;;;;5050028;28;39902;-78
2021/05/30 04:37:27;;;;;;;15.18;9.77;;;;;;;;;;5039068;28;41321;-78
2021/05/30 04:39:53;;;;;;;17.95;11.73;;;;;;;;;;5028083;28;38380;-78
2021/05/30 04:42:20;;;;;;;20.67;11.57;;;;;;;;;;5049439;27;36680;-77
2021/05/30 04:44:46;;;;;;;15.50;10.68;;;;;;;;;;5049324;28;40755;-78
2021/05/30 04:47:12;;;;;;;17.35;11.52;;;;;;;;;;5052869;27;39010;-78
2021/05/30 04:49:39;;;;;;;17.20;10.52;;;;;;;;;;5047802;28;38649;-77
2021/05/30 04:52:07;;;;;;;16.63;9.43;;;;;;;;;;5045573;27;36595;-77
2021/05/30 04:54:33;;;;;;;17.08;9.88;;;;;;;;;;5046369;28;38850;-77
2021/05/30 04:57:00;;;;;;;17.83;10.90;;;;;;;;;;5053162;27;38535;-78
2021/05/30 04:59:26;;;;;;;17.50;9.35;;;;;;;;;;5045113;28;39069;-79
2021/05/30 05:01:52;;;;;;;15.70;9.63;;;;;;;;;;5055975;28;37363;-78
2021/05/30 05:04:19;;;;;;;18.83;9.50;;;;;;;;;;5063812;28;41331;-79
2021/05/30 05:06:45;;;;;;;17.75;10.60;;;;;;;;;;5030294;27;39457;-79
2021/05/30 05:09:11;;;;;;;15.00;9.65;;;;;;;;;;5043226;28;38282;-77
2021/05/30 05:11:38;;;;;;;14.13;8.88;;;;;;;;;;5027240;28;40390;-78
2021/05/30 05:14:04;;;;;;;13.13;9.38;;;;;;;;;;5031343;28;38862;-78
2021/05/30 05:16:31;;;;;;;13.65;8.52;;;;;;;;;;5019906;28;38470;-78
2021/05/30 05:18:59;;;;;;;20.30;13.40;;;;;;;;;;5027909;28;37968;-79
2021/05/30 05:21:26;;;;;;;19.60;10.35;;;;;;;;;;5027651;28;37539;-78
2021/05/30 05:23:54;;;;;;;12.63;10.18;;;;;;;;;;5030636;28;39132;-77
2021/05/30 05:26:20;;;;;;;23.75;16.60;;;;;;;;;;5027261;28;40133;-79
2021/05/30 05:28:47;;;;;;;26.60;18.48;;;;;;;;;;5029711;28;37673;-78
2021/05/30 05:31:13;;;;;;;29.55;19.15;;;;;;;;;;5027684;28;38965;-78
2021/05/30 05:33:40;;;;;;;30.25;21.85;;;;;;;;;;5034046;28;37694;-78
2021/05/30 05:36:06;;;;;;;32.25;21.77;;;;;;;;;;5025043;28;38736;-77
2021/05/30 05:38:33;;;;;;;27.35;20.58;;;;;;;;;;5031219;28;39054;-80
2021/05/30 05:40:59;;;;;;;29.83;18.27;;;;;;;;;;5030359;28;39879;-77
2021/05/30 05:43:26;;;;;;;23.05;17.15;;;;;;;;;;5028480;28;40122;-79
2021/05/30 05:45:52;;;;;;;22.65;13.68;;;;;;;;;;5029548;27;38429;-77
2021/05/30 05:48:18;;;;;;;16.80;11.77;;;;;;;;;;5024594;28;39843;-80
2021/05/30 05:50:45;;;;;;;15.30;11.23;;;;;;;;;;5039249;28;37563;-77
2021/05/30 05:53:12;;;;;;;20.65;11.20;;;;;;;;;;5028009;28;39072;-78
2021/05/30 05:55:38;;;;;;;14.80;9.95;;;;;;;;;;5025938;28;39101;-77
2021/05/30 05:58:05;;;;;;;15.88;10.07;;;;;;;;;;5029787;28;38202;-77
2021/05/30 06:00:32;;;;;;;15.35;9.57;;;;;;;;;;5024454;28;38121;-77
2021/05/30 06:02:58;;;;;;;16.17;10.48;;;;;;;;;;5028419;28;37882;-76
2021/05/30 06:05:25;;;;;;;14.00;9.77;;;;;;;;;;5042357;27;40073;-76
2021/05/30 06:07:52;;;;;;;10.80;8.55;;;;;;;;;;5027611;28;39085;-77
2021/05/30 06:10:25;;;;;;;15.23;8.60;;;;;;;;;;5035751;28;36713;-77
2021/05/30 06:12:52;;;;;;;14.77;9.65;;;;;;;;;;5063741;28;39216;-76
2021/05/30 06:15:20;;;;;;;15.55;9.02;;;;;;;;;;5025663;28;40075;-76
2021/05/30 06:17:53;;;;;;;10.27;7.75;;;;;;;;;;5021867;28;38412;-76
2021/05/30 06:20:20;;;;;;;16.45;8.60;;;;;;;;;;5025819;28;37743;-77
2021/05/30 06:22:46;;;;;;;15.25;8.75;;;;;;;;;;5033805;28;40234;-76
2021/05/30 06:25:13;;;;;;;10.85;8.45;;;;;;;;;;5062366;28;39707;-77
2021/05/30 06:27:39;;;;;;;14.57;9.48;;;;;;;;;;5067254;28;38807;-77
2021/05/30 06:30:06;;;;;;;11.85;8.48;;;;;;;;;;5070619;27;37645;-76
2021/05/30 06:32:33;;;;;;;11.27;8.77;;;;;;;;;;5037038;28;39889;-77
2021/05/30 06:34:59;;;;;;;14.30;9.25;;;;;;;;;;5064644;28;38823;-77
2021/05/30 06:37:25;;;;;;;11.05;7.75;;;;;;;;;;5063570;28;39203;-77
2021/05/30 06:39:52;;;;;;;14.30;9.20;;;;;;;;;;5060756;28;37803;-78
2021/05/30 06:42:18;;;;;;;10.18;8.45;;;;;;;;;;5056725;28;40309;-77
2021/05/30 06:44:45;;;;;;;13.90;9.38;;;;;;;;;;5065077;28;38474;-76
2021/05/30 06:47:12;;;;;;;15.77;9.55;;;;;;;;;;5061016;28;37200;-78
2021/05/30 06:49:38;;;;;;;12.57;9.63;;;;;;;;;;5033637;28;37894;-78
2021/05/30 06:52:05;;;;;;;13.55;8.65;;;;;;;;;;5040367;28;38072;-78
2021/05/30 06:54:31;;;;;;;10.52;8.25;;;;;;;;;;5060475;28;38912;-77
2021/05/30 06:56:57;;;;;;;14.82;9.38;;;;;;;;;;5040981;28;39756;-77
2021/05/30 06:59:24;;;;;;;15.35;9.70;;;;;;;;;;5057251;27;37625;-76
2021/05/30 07:01:50;;;;;;;14.05;8.95;;;;;;;;;;5054933;27;38723;-76
2021/05/30 07:04:17;;;;;;;14.48;9.35;;;;;;;;;;5049899;28;38395;-76
2021/05/30 07:06:43;;;;;;;15.77;8.27;;;;;;;;;;5048681;28;39018;-76
2021/05/30 07:09:09;;;;;;;11.40;8.98;;;;;;;;;;5037573;27;37472;-76
2021/05/30 07:11:36;;;;;;;16.70;10.02;;;;;;;;;;5043394;28;40698;-76
2021/05/30 07:14:03;;;;;;;16.27;10.80;;;;;;;;;;5033318;28;37701;-77
2021/05/30 07:16:29;;;;;;;17.38;9.38;;;;;;;;;;5029985;28;39623;-77
2021/05/30 07:18:56;;;;;;;12.50;8.13;;;;;;;;;;5040890;28;37426;-75
2021/05/30 07:21:22;;;;;;;19.25;10.70;;;;;;;;;;5037872;28;39157;-78
2021/05/30 07:23:49;;;;;;;18.27;10.18;;;;;;;;;;5040440;28;38325;-77
2021/05/30 07:26:15;;;;;;;15.07;10.02;;;;;;;;;;5041077;28;37384;-77
2021/05/30 07:28:44;;;;;;;14.65;9.45;;;;;;;;;;5041966;28;37496;-80
2021/05/30 07:31:11;;;;;;;16.27;9.85;;;;;;;;;;5066953;28;39801;-78
2021/05/30 07:33:37;;;;;;;15.15;10.75;;;;;;;;;;5040744;28;38422;-77
2021/05/30 07:36:05;;;;;;;16.30;12.15;;;;;;;;;;5036723;28;39102;-77
2021/05/30 07:38:32;;;;;;;20.95;12.77;;;;;;;;;;5037795;28;38843;-76
2021/05/30 07:40:59;;;;;;;11.85;9.50;;;;;;;;;;5040879;28;39112;-76
2021/05/30 07:43:25;;;;;;;13.73;9.60;;;;;;;;;;5035694;28;39860;-77
2021/05/30 07:45:51;;;;;;;15.35;10.30;;;;;;;;;;5062976;28;39757;-78
2021/05/30 07:48:18;;;;;;;16.50;11.35;;;;;;;;;;5038539;28;37659;-79
2021/05/30 07:50:45;;;;;;;15.95;11.23;;;;;;;;;;5043306;28;39397;-78
2021/05/30 07:53:12;;;;;;;14.52;10.60;;;;;;;;;;5040680;28;39807;-78
2021/05/30 07:55:38;;;;;;;12.70;10.05;;;;;;;;;;5064608;27;37987;-78
2021/05/30 07:58:05;;;;;;;15.27;10.15;;;;;;;;;;5036811;28;36709;-79
2021/05/30 08:00:31;;;;;;;13.98;10.68;;;;;;;;;;5038603;28;39869;-79
2021/05/30 08:02:58;;;;;;;13.43;9.68;;;;;;;;;;5031793;28;39203;-80
2021/05/30 08:05:24;;;;;;;16.13;11.82;;;;;;;;;;5032765;28;37649;-79
2021/05/30 08:07:51;;;;;;;12.07;9.75;;;;;;;;;;5064244;28;37292;-80
2021/05/30 08:10:18;;;;;;;13.93;9.65;;;;;;;;;;5063673;28;40010;-78
2021/05/30 08:12:45;;;;;;;13.98;10.18;;;;;;;;;;5068197;28;39589;-79
2021/05/30 08:15:12;;;;;;;15.18;10.15;;;;;;;;;;5044677;28;38463;-79
2021/05/30 08:17:39;;;;;;;12.93;9.23;;;;;;;;;;5036914;28;38844;-79
2021/05/30 08:20:06;;;;;;;12.38;8.85;;;;;;;;;;5067342;28;40872;-79
2021/05/30 08:22:33;;;;;;;12.40;9.77;;;;;;;;;;5036320;28;40335;-79
2021/05/30 08:25:00;;;;;;;14.55;10.88;;;;;;;;;;5038922;28;37584;-78
2021/05/30 08:27:26;;;;;;;10.77;9.68;;;;;;;;;;5043092;28;36903;-79
2021/05/30 08:29:53;;;;;;;11.48;8.85;;;;;;;;;;5039681;28;37670;-77
2021/05/30 08:32:21;;;;;;;13.40;10.43;;;;;;;;;;5070365;27;37781;-78
2021/05/30 08:34:47;;;;;;;15.27;10.65;;;;;;;;;;5054050;28;37411;-78
2021/05/30 08:37:15;;;;;;;13.90;11.00;;;;;;;;;;5033575;28;36303;-78
2021/05/30 08:39:41;;;;;;;15.32;11.02;;;;;;;;;;5036768;28;38862;-78
2021/05/30 08:42:08;;;;;;;17.50;11.43;;;;;;;;;;5028898;28;38393;-77
2021/05/30 08:44:34;;;;;;;17.65;12.43;;;;;;;;;;5031480;28;38391;-77
2021/05/30 08:47:01;;;;;;;16.27;12.27;;;;;;;;;;5031388;28;38529;-78
2021/05/30 08:49:27;;;;;;;16.70;12.52;;;;;;;;;;5058522;27;48864;-79
2021/05/30 08:51:53;;;;;;;16.73;12.93;;;;;;;;;;5057987;28;39713;-78
2021/05/30 08:54:21;;;;;;;19.58;14.55;;;;;;;;;;5065312;27;37753;-78
2021/05/30 08:56:48;;;;;;;18.35;13.48;;;;;;;;;;5057852;27;36998;-78
2021/05/30 08:59:27;;;;;;;20.42;14.30;;;;;;;;;;5062988;28;38388;-79
2021/05/30 09:01:54;;;;;;;15.23;11.60;;;;;;;;;;5058726;28;38410;-78
2021/05/30 09:04:29;;;;;;;23.60;14.30;;;;;;;;;;5053990;28;40002;-77
2021/05/30 09:06:55;;;;;;;22.92;15.85;;;;;;;;;;5057307;28;38885;-76
2021/05/30 09:09:22;;;;;;;19.45;14.52;;;;;;;;;;5057391;28;40575;-77
2021/05/30 09:11:50;;;;;;;20.45;15.05;;;;;;;;;;5059476;28;38291;-77
2021/05/30 09:14:23;;;;;;;20.80;14.23;;;;;;;;;;5054766;28;39044;-77
2021/05/30 09:16:50;;;;;;;26.00;17.23;;;;;;;;;;5057956;27;37007;-77
2021/05/30 09:19:49;;;;;;;20.90;14.85;;;;;;;;;;5050466;28;38822;-79
2021/05/30 09:22:15;;;;;;;17.85;13.57;;;;;;;;;;5035550;28;40082;-78
2021/05/30 09:24:48;;;;;;;21.02;14.27;;;;;;;;;;5056667;28;39850;-78
2021/05/30 09:27:14;;;;;;;19.40;13.90;;;;;;;;;;5060069;28;37261;-77
2021/05/30 09:29:41;;;;;;;20.20;13.38;;;;;;;;;;5059702;27;38552;-76
2021/05/30 09:32:07;;;;;;;20.75;14.20;;;;;;;;;;5055673;28;41012;-77
2021/05/30 09:34:34;;;;;;;18.48;14.43;;;;;;;;;;5054138;28;40201;-77
2021/05/30 09:37:01;;;;;;;21.48;15.25;;;;;;;;;;5058624;27;37136;-78
2021/05/30 09:39:37;;;;;;;19.73;13.88;;;;;;;;;;5044956;28;48635;-77
2021/05/30 09:42:22;;;;;;;16.27;13.13;;;;;;;;;;5056001;28;40151;-78
2021/05/30 09:44:55;;;;;;;16.75;11.52;;;;;;;;;;5054872;28;39395;-78
2021/05/30 09:47:57;;;;;;;17.23;11.98;;;;;;;;;;5053957;28;38034;-77
2021/05/30 09:50:23;;;;;;;17.42;12.85;;;;;;;;;;4973224;28;39698;-79
2021/05/30 09:52:51;;;;;;;14.48;12.05;;;;;;;;;;5025571;28;38317;-80
2021/05/30 09:55:20;;;;;;;13.07;10.70;;;;;;;;;;5037921;27;39662;-79
2021/05/30 09:58:05;;;;;;;14.77;10.63;;;;;;;;;;5050744;28;37429;-76
2021/05/30 10:00:31;;;;;;;13.93;10.77;;;;;;;;;;5063825;28;48264;-77
2021/05/30 10:02:57;;;;;;;14.32;11.25;;;;;;;;;;5053106;28;39383;-77
2021/05/30 10:05:24;;;;;;;13.20;11.35;;;;;;;;;;5055461;27;37482;-78
2021/05/30 10:07:50;;;;;;;14.27;12.13;;;;;;;;;;5054167;28;38652;-78
2021/05/30 10:10:17;;;;;;;15.00;10.65;;;;;;;;;;5052141;27;38350;-77
2021/05/30 10:12:46;;;;;;;15.15;10.30;;;;;;;;;;5050637;28;39038;-76
2021/05/30 10:15:13;;;;;;;13.23;10.85;;;;;;;;;;5059341;27;39902;-77
2021/05/30 10:17:40;;;;;;;13.40;10.93;;;;;;;;;;5049388;28;38065;-77
2021/05/30 10:20:08;;;;;;;13.68;11.07;;;;;;;;;;5050827;27;40458;-78
2021/05/30 10:22:35;;;;;;;14.50;10.90;;;;;;;;;;5053148;28;39132;-75
2021/05/30 10:25:01;;;;;;;14.82;10.82;;;;;;;;;;5059770;27;37966;-76
2021/05/30 10:27:28;;;;;;;13.38;9.73;;;;;;;;;;5050955;28;48524;-77
2021/05/30 10:30:15;;;;;;;12.15;9.52;;;;;;;;;;5057875;27;41322;-80
2021/05/30 10:32:46;;;;;;;13.27;9.85;;;;;;;;;;5047256;28;47350;-78
2021/05/30 10:35:13;;;;;;;15.93;10.15;;;;;;;;;;5063405;28;38885;-77
2021/05/30 10:37:40;;;;;;;15.80;9.80;;;;;;;;;;5055212;27;37947;-77
2021/05/30 10:40:25;;;;;;;12.07;10.00;;;;;;;;;;5052586;28;39804;-77
2021/05/30 10:43:11;;;;;;;10.63;8.90;;;;;;;;;;5062164;27;38514;-78
2021/05/30 10:45:56;;;;;;;10.63;8.45;;;;;;;;;;5054042;28;47539;-78
2021/05/30 10:48:22;;;;;;;10.55;9.43;;;;;;;;;;5058718;27;37933;-78
2021/05/30 10:53:42;;;;;;;14.45;10.05;;;;;;;;;;5062880;27;48886;-78
2021/05/30 10:56:23;;;;;;;10.85;8.27;;;;;;;;;;5053556;27;40110;-77
2021/05/30 10:59:05;;;;;;;12.13;8.98;;;;;;;;;;5069960;28;37955;-77
2021/05/30 11:01:44;;;;;;;10.43;9.13;;;;;;;;;;5055534;27;48556;-79
2021/05/30 11:04:26;;;;;;;11.90;9.85;;;;;;;;;;5052237;28;38504;-77
2021/05/30 11:06:53;;;;;;;12.23;9.32;;;;;;;;;;5056791;28;38476;-77
2021/05/30 11:09:20;;;;;;;12.25;9.07;;;;;;;;;;5056964;28;35925;-78
2021/05/30 11:12:07;;;;;;;13.93;8.85;;;;;;;;;;5057329;28;37749;-79
2021/05/30 11:14:33;;;;;;;9.57;8.00;;;;;;;;;;5054730;27;48529;-76
2021/05/30 11:16:59;;;;;;;9.20;7.70;;;;;;;;;;5053176;28;37029;-77
2021/05/30 11:19:26;;;;;;;9.18;7.43;;;;;;;;;;5056538;28;35944;-76
2021/05/30 11:21:55;;;;;;;8.23;6.28;;;;;;;;;;5054262;28;37562;-77
2021/05/30 11:24:24;;;;;;;12.13;9.63;;;;;;;;;;5047857;28;39611;-78
2021/05/30 11:26:57;;;;;;;11.23;7.70;;;;;;;;;;5044546;27;37059;-78
2021/05/30 11:29:24;;;;;;;10.40;8.98;;;;;;;;;;5046077;27;37357;-76
2021/05/30 11:31:50;;;;;;;12.98;8.60;;;;;;;;;;5046113;27;40174;-77
2021/05/30 11:34:17;;;;;;;11.85;7.90;;;;;;;;;;5052419;27;37603;-77
2021/05/30 11:36:43;;;;;;;9.95;8.88;;;;;;;;;;5054149;28;39008;-78
2021/05/30 11:39:14;;;;;;;10.60;8.77;;;;;;;;;;5053478;27;36695;-76
2021/05/30 11:41:47;;;;;;;9.77;7.50;;;;;;;;;;5059384;27;38791;-78
2021/05/30 11:44:14;;;;;;;7.97;7.18;;;;;;;;;;5051410;28;38396;-77
2021/05/30 11:47:01;;;;;;;9.20;7.63;;;;;;;;;;5058848;27;37600;-76
2021/05/30 11:49:28;;;;;;;9.73;7.85;;;;;;;;;;5082598;27;46851;-75
2021/05/30 11:51:59;;;;;;;7.97;6.35;;;;;;;;;;5051073;27;39158;-75
2021/05/30 11:54:27;;;;;;;9.27;6.90;;;;;;;;;;5061866;27;38647;-76
2021/05/30 11:56:55;;;;;;;8.77;7.78;;;;;;;;;;5070801;27;38561;-75
2021/05/30 11:59:35;;;;;;;9.32;8.25;;;;;;;;;;5058790;28;36958;-76
2021/05/30 12:02:01;;;;;;;8.50;7.68;;;;;;;;;;5059561;28;38994;-75
2021/05/30 12:04:32;;;;;;;8.77;7.68;;;;;;;;;;5038833;28;47291;-75
2021/05/30 12:06:59;;;;;;;9.05;7.97;;;;;;;;;;5044305;28;37839;-74
2021/05/30 12:09:42;;;;;;;9.15;8.10;;;;;;;;;;5056668;28;37252;-77
2021/05/30 12:12:21;;;;;;;7.70;6.90;;;;;;;;;;5075235;27;38459;-75
2021/05/30 12:14:48;;;;;;;10.27;7.32;;;;;;;;;;5055615;27;38377;-76
2021/05/30 12:17:14;;;;;;;8.15;7.32;;;;;;;;;;5048381;28;38284;-77
2021/05/30 12:19:41;;;;;;;9.98;6.80;;;;;;;;;;5055350;28;37724;-75
2021/05/30 12:22:08;;;;;;;10.23;8.25;;;;;;;;;;5061026;28;39860;-76
2021/05/30 12:24:37;;;;;;;20.35;9.57;;;;;;;;;;5050840;28;37934;-77
2021/05/30 12:27:04;;;;;;;12.68;8.82;;;;;;;;;;5047546;28;37973;-76
2021/05/30 12:29:31;;;;;;;10.52;8.15;;;;;;;;;;5057032;28;37397;-76
2021/05/30 12:31:58;;;;;;;12.43;8.30;;;;;;;;;;5076586;27;39721;-75
2021/05/30 12:34:37;;;;;;;8.55;7.35;;;;;;;;;;5061063;27;39344;-76
2021/05/30 12:37:03;;;;;;;8.00;6.57;;;;;;;;;;5057332;27;37549;-76
2021/05/30 12:39:30;;;;;;;7.80;6.55;;;;;;;;;;5064520;28;37450;-78
2021/05/30 12:42:05;;;;;;;9.63;7.30;;;;;;;;;;5060072;27;40085;-80
2021/05/30 12:44:39;;;;;;;8.80;6.70;;;;;;;;;;5061508;28;47457;-77
2021/05/30 12:47:09;;;;;;;10.68;6.95;;;;;;;;;;5060199;27;38371;-79
2021/05/30 12:49:36;;;;;;;8.02;6.82;;;;;;;;;;5061308;28;37254;-80
2021/05/30 12:52:18;;;;;;;7.65;5.47;;;;;;;;;;5058601;27;39332;-79
2021/05/30 12:54:44;;;;;;;;;;;;;;;;;;5078113;28;40189;-77
2021/05/30 12:57:13;;;;;;;6.78;6.07;;;;;;;;;;5042445;28;39122;-77
2021/05/30 12:59:48;;;;;;;9.25;6.78;;;;;;;;;;5046422;28;36148;-80
2021/05/30 13:02:15;;;;;;;8.52;6.22;;;;;;;;;;5044047;28;38586;-80
2021/05/30 13:04:44;;;;;;;7.30;6.32;;;;;;;;;;5043424;28;38757;-79
2021/05/30 13:07:12;;;;;;;9.05;6.68;;;;;;;;;;5060664;28;39882;-76
2021/05/30 13:09:42;;;;;;;6.72;6.03;;;;;;;;;;5036072;28;37926;-78
2021/05/30 13:12:28;;;;;;;8.38;6.05;;;;;;;;;;5067696;28;39550;-78
2021/05/30 13:15:08;;;;;;;7.47;5.82;;;;;;;;;;5032041;28;38544;-80
2021/05/30 13:17:35;;;;;;;7.57;6.38;;;;;;;;;;5029009;28;47097;-78
2021/05/30 13:20:17;;;;;;;7.47;5.88;;;;;;;;;;5046078;28;35853;-79
2021/05/30 13:23:03;;;;;;;8.27;6.28;;;;;;;;;;5019961;28;47033;-78
2021/05/30 13:25:31;;;;;;;6.00;5.35;;;;;;;;;;5039654;28;47589;-81
2021/05/30 13:28:18;;;;;;;6.25;5.47;;;;;;;;;;5030337;28;38523;-78
2021/05/30 13:30:49;;;;;;;7.47;6.10;;;;;;;;;;5027848;28;47370;-79
2021/05/30 13:33:15;;;;;;;7.20;5.40;;;;;;;;;;5028040;28;41928;-76
2021/05/30 13:35:42;;;;;;;6.45;5.75;;;;;;;;;;5038861;28;39115;-78
2021/05/30 13:38:08;;;;;;;7.05;5.72;;;;;;;;;;5036614;28;37268;-78
2021/05/30 13:40:37;;;;;;;8.77;6.32;;;;;;;;;;5035565;28;38763;-77
2021/05/30 13:43:04;;;;;;;6.72;5.43;;;;;;;;;;5032784;28;38605;-79
2021/05/30 13:45:30;;;;;;;7.78;5.15;;;;;;;;;;5036539;27;39356;-76
2021/05/30 13:47:56;;;;;;;6.30;4.80;;;;;;;;;;5040147;28;39664;-78
2021/05/30 13:50:23;;;;;;;6.93;4.30;;;;;;;;;;5056428;28;38555;-78
2021/05/30 13:52:49;;;;;;;5.90;4.82;;;;;;;;;;5063020;28;38590;-78
2021/05/30 13:55:16;;;;;;;8.00;5.00;;;;;;;;;;5036259;28;38095;-78
2021/05/30 13:57:42;;;;;;;6.68;5.15;;;;;;;;;;5032816;28;40086;-79
2021/05/30 14:00:09;;;;;;;6.88;5.25;;;;;;;;;;5030055;28;37406;-77
2021/05/30 14:02:35;;;;;;;4.75;4.25;;;;;;;;;;5058094;28;39627;-77
2021/05/30 14:05:02;;;;;;;7.95;5.85;;;;;;;;;;5060370;28;39229;-77
2021/05/30 14:07:28;;;;;;;7.95;4.75;;;;;;;;;;5036156;28;48518;-80
2021/05/30 14:09:54;;;;;;;5.10;4.40;;;;;;;;;;5033789;28;37188;-78
2021/05/30 14:12:21;;;;;;;5.85;4.30;;;;;;;;;;5061551;27;37724;-79
2021/05/30 14:14:47;;;;;;;8.55;3.88;;;;;;;;;;5059671;27;39121;-77
2021/05/30 14:17:14;;;;;;;5.88;3.50;;;;;;;;;;5024601;28;37406;-78
2021/05/30 14:19:40;;;;;;;6.63;3.15;;;;;;;;;;5036737;27;38382;-78
2021/05/30 14:22:07;;;;;;;6.50;3.78;;;;;;;;;;5037658;28;39611;-76
2021/05/30 14:24:33;;;;;;;5.07;4.18;;;;;;;;;;5066045;28;37388;-79
2021/05/30 14:27:01;;;;;;;4.35;3.17;;;;;;;;;;5062671;28;37028;-76
2021/05/30 14:29:27;;;;;;;5.60;2.92;;;;;;;;;;5048947;27;47251;-75
2021/05/30 14:31:54;;;;;;;4.20;3.30;;;;;;;;;;5056722;27;40111;-79
2021/05/30 14:34:20;;;;;;;5.22;3.38;;;;;;;;;;5052904;28;37389;-80